logo
Search for airport 
image banner adimage banner adimage banner ad
image banner ad

ED0652 - Liebschuetzer Berg

Located in Liebschuetz, Germany

ICAO - , IATA -

Data provided by Airmate  

General information

Coordinates: N51°21'5" E13°7'51"
Elevation is 623 feet MSL.
 
View others Airports in Saxony

Operational data

Special qualification required
Current time UTC:
Current local time:
Weather at : ETSH - Holzdorf ( 46 km )
METAR: ETSH 301920Z 36001KT 9999 MIFG FEW038CB 15/14 Q1003 BLU+
TAF: TAF AMD ETSH 301223Z 3012/3020 16005KT 9999 NSW SCT025 BKN060 TEMPO 3012/3016 23015G25KT 0500 +TSRA BKN010CB TEMPO 3016/3020 20010KT 5000 SHRA BKN020TCU
View NOTAMs / SUP AIP / TFR affecting this airport [VIEW]
Communications frequencies: [VIEW]

Runways:

Airport contact information

Address: Liebschuetz Germany

Satellite view of ED0652